La Crosse Municipal Airport
KLSE : now visible

Airfield :











YOU CAN JOIN US ON...

 
LOGIN :

Register | Disclaimer

   EN    FR    IT 

 









Legend :    VFR   Marginal VFR   IFR   Intensive IFR   Very Intensive IFR
Visi :
Ceiling :
>= 8 km
>= 3000ft
5 to 8 km
1000 to 3000 ft
1500m to 5 km
500 to 1000 ft
800 to 1500m
200 to 500 ft
< 800m
< 200 ft
Symbols :   Thunderstorms  Fog  Heavy snow  Heavy precipitations  Wind > 20 kt






- Airport Elevation : 655 ft
- IATA code : LSE


KLSE - La Crosse Municipal

CURRENT METAR :
  • 162153Z 15012KT 10SM CLR 06/M03 A3015 RMK AO2 SLP219 T00611033

EXPIRED METARs :
  • 162053Z 18010KT 9SM CLR 06/M02 A3016 RMK AO2 SLP223 T00611022 56032
  • 161953Z 19009KT 8SM CLR 06/M02 A3019 RMK AO2 SLP235 T00561022

TAF KLSE
Valid from the 16 at 21:00 until the 17 at 18:00 UTC


162059Z 1621/1718 17009KT P6SM BKN120
FM171100 18007KT 4SM -SN SCT007 OVC020
TEMPO 1711/1714 1 1/2SM -SN OVC007
FM171400 20005KT 4SM -RASN OVC007
FM171600 VRB04KT P6SM OVC010



MET'MAP, your aeronautical weather chart ! - Copyright ORBIFLY December 2007 - Disclaimer

ORBIFLY MET'MAP TEAM :

Programming & Development : Alexandra Zaïnal
Concept & Development : Baudouin d'Aumeries
Co-Development & Prog : Marc-Olivier Méhu
Technical & hardware support : Manuel Goepfert

Contact : metmap@orbifly.com




SOURCES & CREDITS :

   NOAA       Earth
Advisory